KLWB/LWB METAR and TAF weather

Enter ICAO airport designator
Station Type Date Time Source
KLWB METAR 2019/06/19 07:15 UTC NOAA

KLWB 190715Z AUTO 00000KT 1/4SM FG OVC001 16/16 A2996 RMK AO2 T01610160


Station Type Date Time Source
KLWB Decoded METAR 2019/06/19 07:15 UTC NOAA

Lewisburg / Greenbrier, WV, United States (KLWB) 37-52N 080-24W
Jun 19, 2019 - 03:15 AM EDT / 2019.06.19 0715 UTC
Wind: Calm:0
Visibility: 1/4 mile(s):0
Sky conditions: overcast
Weather: fog
Temperature: 61.0 F (16.1 C)
Dew Point: 60.8 F (16.0 C)
Relative Humidity: 99%
Pressure (altimeter): 29.96 in. Hg (1014 hPa)
ob: KLWB 190715Z AUTO 00000KT 1/4SM FG OVC001 16/16 A2996 RMK AO2 T01610160
cycle: 7

Station Type Date Time Source
KLWB TAF 2019/06/19 06:30 UTC NOAA

TAF KLWB 190527Z 1906/2006 00000KT 1/4SM FG OVC001
FM190900 00000KT 1SM BR OVC005
TEMPO 1909/1913 1/4SM FG OVC001
FM191400 23005KT 5SM BR BKN035
FM191500 23005KT P6SM VCSH BKN060
FM191700 24007KT 5SM SHRA VCTS SCT012 BKN060CB
FM192000 24005KT P6SM VCTS SCT030 BKN060CB
FM200000 00000KT P6SM BKN050

Example: see airport list